createdAt,value
2022-11-17T05:05:03.050Z,6.458
2022-11-17T05:07:04.303Z,4.914
2022-11-17T05:11:07.595Z,4.633
2022-11-17T05:13:08.986Z,8.143
2022-11-17T05:15:10.153Z,6.458
2022-11-17T05:17:12.140Z,4.352
2022-11-17T05:19:13.057Z,2.808
2022-11-17T05:21:14.465Z,5.054
2022-11-17T05:23:15.830Z,3.65
2022-11-17T05:25:17.350Z,8.283
2022-11-17T05:27:19.081Z,7.3
2022-11-17T05:29:20.647Z,3.65
2022-11-17T05:31:21.928Z,5.616
2022-11-17T05:33:23.505Z,6.318
2022-11-17T05:35:24.784Z,2.106
2022-11-17T05:37:26.262Z,4.492
2022-11-17T05:39:28.056Z,2.527
2022-11-17T05:43:30.744Z,5.616
2022-11-17T05:45:31.973Z,4.071
2022-11-17T05:47:33.787Z,3.229
2022-11-17T05:49:35.300Z,2.948
2022-11-17T05:53:38.455Z,5.054
2022-11-17T05:55:40.172Z,2.527
2022-11-17T05:57:41.459Z,5.896
2022-11-17T05:59:43.306Z,4.212
2022-11-17T06:01:44.517Z,3.51
2022-11-17T06:03:45.534Z,7.16
2022-11-17T06:05:46.720Z,2.527
2022-11-17T06:07:47.676Z,3.79
2022-11-17T06:09:48.802Z,0.421
2022-11-17T06:11:50.326Z,5.475
2022-11-17T06:13:52.224Z,4.773
2022-11-17T06:15:53.941Z,2.386
2022-11-17T06:17:55.592Z,4.633
2022-11-17T06:19:56.698Z,5.194
2022-11-17T06:22:11.448Z,4.773
2022-11-17T06:23:59.930Z,2.106
2022-11-17T06:26:01.464Z,5.896
2022-11-17T06:28:02.799Z,3.51
2022-11-17T06:30:04.011Z,0.982
2022-11-17T06:32:05.705Z,2.667
2022-11-17T06:36:08.631Z,3.369
2022-11-17T06:38:09.949Z,3.65
2022-11-17T06:40:11.859Z,3.931
2022-11-17T06:42:13.748Z,5.616
2022-11-17T06:44:14.880Z,4.071
2022-11-17T06:46:16.674Z,5.475
2022-11-17T06:48:17.689Z,3.229
2022-11-17T06:49:01.509Z,4.492
2022-11-17T06:51:03.375Z,4.352
2022-11-17T06:53:05.087Z,2.667
2022-11-17T06:55:06.910Z,3.229
2022-11-17T06:57:08.334Z,6.598
2022-11-17T06:59:10.172Z,3.369
2022-11-17T07:01:12.052Z,5.194
2022-11-17T07:03:13.064Z,6.037
2022-11-17T07:05:14.039Z,4.492
2022-11-17T07:07:15.201Z,3.369
2022-11-17T07:09:16.209Z,1.123
2022-11-17T07:11:17.136Z,1.263
2022-11-17T07:13:18.687Z,3.088
2022-11-17T07:15:20.143Z,4.492
2022-11-17T07:17:21.856Z,1.263
2022-11-17T07:19:22.982Z,1.263
2022-11-17T07:21:24.293Z,0.702
2022-11-17T07:23:25.663Z,0.421
2022-11-17T07:25:26.788Z,3.931
2022-11-17T07:27:28.596Z,4.773
2022-11-17T07:29:29.591Z,5.756
2022-11-17T07:31:31.220Z,3.79
2022-11-17T07:33:32.941Z,4.352
2022-11-17T07:35:34.785Z,2.948
2022-11-17T07:37:36.550Z,2.106
2022-11-17T07:39:37.748Z,6.037
2022-11-17T07:41:38.797Z,8.424
2022-11-17T07:43:40.798Z,8.143
2022-11-17T07:45:42.103Z,1.965
2022-11-17T07:47:43.259Z,3.51
2022-11-17T07:49:45.078Z,2.527
2022-11-17T07:51:46.573Z,4.071
2022-11-17T07:55:49.934Z,5.194
2022-11-17T07:57:51.675Z,4.492
2022-11-17T08:01:54.404Z,4.352
2022-11-17T08:03:56.242Z,4.492
2022-11-17T08:05:57.230Z,7.3
2022-11-17T08:07:58.308Z,6.037
2022-11-17T08:12:01.117Z,4.212
2022-11-17T08:14:02.197Z,3.931
2022-11-17T08:16:03.871Z,5.335
2022-11-17T08:18:05.231Z,1.123
2022-11-17T08:20:06.486Z,5.896
2022-11-17T08:22:08.143Z,3.229
2022-11-17T08:24:09.701Z,9.406
2022-11-17T08:26:11.164Z,7.722
2022-11-17T08:28:22.055Z,5.054
2022-11-17T08:30:14.748Z,8.985
2022-11-17T08:32:15.995Z,6.037
2022-11-17T08:34:17.852Z,6.177
2022-11-17T08:36:18.819Z,6.739
2022-11-17T08:38:19.837Z,4.914
2022-11-17T08:40:21.462Z,9.406
2022-11-17T08:44:23.750Z,4.633
2022-11-17T08:46:25.033Z,6.739
2022-11-17T08:48:26.786Z,6.458
2022-11-17T08:50:27.773Z,5.756
2022-11-17T08:54:30.828Z,7.02
2022-11-17T08:56:31.861Z,5.054
2022-11-17T08:58:33.859Z,5.616
2022-11-17T09:00:35.255Z,3.79
2022-11-17T09:02:36.862Z,5.475
2022-11-17T09:04:38.079Z,8.845
2022-11-17T09:06:39.323Z,4.492
2022-11-17T09:08:46.549Z,3.088
2022-11-17T09:10:42.204Z,1.965
2022-11-17T09:12:43.934Z,5.475
2022-11-17T09:14:44.871Z,4.773
2022-11-17T09:16:46.702Z,2.246
2022-11-17T09:18:48.035Z,6.739
2022-11-17T09:20:49.788Z,3.369
2022-11-17T09:22:50.626Z,3.229
2022-11-17T09:24:52.188Z,4.914
2022-11-17T09:26:53.590Z,3.51
2022-11-17T09:28:54.639Z,3.088
2022-11-17T09:30:56.505Z,4.773
2022-11-17T09:32:58.028Z,6.037
2022-11-17T09:34:59.511Z,5.756
2022-11-17T09:37:00.629Z,4.633
2022-11-17T09:39:01.901Z,6.739
2022-11-17T09:41:03.292Z,5.756
2022-11-17T09:43:04.293Z,4.212
2022-11-17T09:45:05.864Z,1.123
2022-11-17T09:47:07.052Z,6.037
2022-11-17T09:49:07.966Z,1.965
2022-11-17T09:51:09.701Z,5.054
2022-11-17T09:53:11.339Z,2.246
2022-11-17T09:55:13.112Z,5.616
2022-11-17T09:57:14.898Z,6.879
2022-11-17T09:59:15.982Z,7.3
2022-11-17T10:01:17.449Z,3.931
2022-11-17T10:03:18.470Z,4.071
2022-11-17T10:05:19.771Z,2.527
2022-11-17T10:07:21.261Z,4.492
2022-11-17T10:09:25.540Z,5.194
2022-11-17T10:11:23.939Z,1.825
2022-11-17T10:13:25.629Z,3.088
2022-11-17T10:15:27.354Z,5.475
2022-11-17T10:17:29.185Z,4.492
2022-11-17T10:19:30.954Z,4.633
2022-11-17T10:21:31.952Z,6.458
2022-11-17T10:23:33.792Z,1.965
2022-11-17T10:25:35.070Z,3.229
2022-11-17T10:27:35.978Z,4.773
2022-11-17T10:29:37.202Z,2.667
2022-11-17T10:31:38.630Z,1.123
2022-11-17T10:35:41.559Z,6.458
2022-11-17T10:37:42.762Z,3.931
2022-11-17T10:39:44.616Z,2.948
2022-11-17T10:41:46.034Z,2.246
2022-11-17T10:43:47.945Z,2.106
2022-11-17T10:45:49.072Z,4.212
2022-11-17T10:47:50.211Z,7.16
2022-11-17T10:49:51.762Z,4.633
2022-11-17T10:51:53.158Z,4.212
2022-11-17T10:53:54.615Z,4.914
2022-11-17T10:55:55.981Z,2.808
2022-11-17T10:57:57.579Z,3.51
2022-11-17T10:59:58.576Z,5.896
2022-11-17T11:01:59.528Z,2.948
2022-11-17T11:04:00.628Z,5.054
2022-11-17T11:08:03.250Z,2.808
2022-11-17T11:10:04.566Z,0.561
2022-11-17T11:12:06.477Z,0.28
2022-11-17T11:14:07.355Z,0.702
2022-11-17T11:18:10.109Z,1.404
2022-11-17T11:20:11.629Z,1.123
2022-11-17T11:22:15.692Z,6.739
2022-11-17T11:24:14.449Z,6.318
2022-11-17T11:26:15.800Z,8.845
2022-11-17T11:28:16.799Z,5.756
2022-11-17T11:30:18.004Z,6.739
2022-11-17T11:32:19.202Z,6.177
2022-11-17T11:34:21.023Z,2.106
2022-11-17T11:36:22.310Z,4.773
2022-11-17T11:38:23.281Z,3.088
2022-11-17T11:40:24.407Z,3.088
2022-11-17T11:42:25.660Z,3.51
2022-11-17T11:44:26.583Z,5.616
2022-11-17T11:46:28.068Z,3.65
2022-11-17T11:48:29.959Z,1.263
2022-11-17T11:50:30.712Z,4.352
2022-11-17T11:52:32.458Z,2.386
2022-11-17T11:54:34.018Z,1.684
2022-11-17T11:56:35.528Z,0.421
2022-11-17T11:58:37.465Z,0.421
2022-11-17T12:00:39.010Z,0
2022-11-17T12:02:40.767Z,3.229
2022-11-17T12:06:42.919Z,0.982
2022-11-17T12:08:44.501Z,1.123
2022-11-17T12:10:45.835Z,0.28
2022-11-17T12:12:47.128Z,1.684
2022-11-17T12:14:48.198Z,0.421
2022-11-17T12:16:49.159Z,0.421
2022-11-17T12:18:50.452Z,1.404
2022-11-17T12:20:52.303Z,3.369
2022-11-17T12:22:54.092Z,1.123
2022-11-17T12:24:55.598Z,2.527
2022-11-17T12:26:56.538Z,0
2022-11-17T12:28:58.461Z,2.667
2022-11-17T12:31:02.682Z,3.51
2022-11-17T12:33:01.266Z,3.79
2022-11-17T12:35:02.452Z,3.65
2022-11-17T12:37:03.811Z,0.842
2022-11-17T12:39:05.179Z,0.561
2022-11-17T12:41:06.970Z,0
2022-11-17T12:43:08.534Z,0.421
2022-11-17T12:45:10.918Z,2.246
2022-11-17T12:47:12.533Z,1.123
2022-11-17T12:49:13.475Z,1.263
2022-11-17T12:51:14.668Z,3.51
2022-11-17T12:53:16.100Z,1.404
2022-11-17T12:55:17.028Z,3.65
2022-11-17T12:59:19.962Z,1.544
2022-11-17T13:01:21.912Z,0.982
2022-11-17T13:03:22.983Z,3.088
2022-11-17T13:05:24.693Z,2.667
2022-11-17T13:07:25.948Z,2.527
2022-11-17T13:09:27.017Z,0.14
2022-11-17T13:11:28.206Z,2.808
2022-11-17T13:13:29.677Z,3.79
2022-11-17T13:15:31.066Z,6.318
2022-11-17T13:17:32.256Z,2.386
2022-11-17T13:19:33.829Z,2.527
2022-11-17T13:21:35.293Z,1.684
2022-11-17T13:23:36.652Z,3.369
2022-11-17T13:25:38.396Z,4.071
2022-11-17T13:27:40.055Z,2.527
2022-11-17T13:31:42.428Z,2.667
2022-11-17T13:33:44.065Z,1.965
2022-11-17T13:36:29.141Z,1.263
2022-11-17T13:38:30.705Z,0.14
2022-11-17T13:40:32.337Z,3.229
2022-11-17T13:42:33.673Z,0.702
2022-11-17T13:44:34.974Z,3.088
2022-11-17T13:46:36.542Z,3.369
2022-11-17T13:48:38.009Z,0.28
2022-11-17T13:50:39.327Z,2.386
2022-11-17T13:52:45.500Z,0.421
2022-11-17T13:54:42.535Z,1.263
2022-11-17T13:56:44.443Z,1.263
2022-11-17T13:58:45.584Z,0.421
2022-11-17T14:00:46.834Z,0.842
2022-11-17T14:02:48.215Z,3.65
2022-11-17T14:04:49.951Z,3.088
2022-11-17T14:08:52.278Z,4.914
2022-11-17T14:10:53.379Z,4.352
2022-11-17T14:12:54.819Z,2.386
2022-11-17T14:14:56.427Z,3.65
2022-11-17T14:16:57.463Z,2.527
2022-11-17T14:18:59.206Z,3.088
2022-11-17T14:21:00.381Z,1.544
2022-11-17T14:23:02.261Z,0.14
2022-11-17T14:25:03.327Z,0.982
2022-11-17T14:27:04.438Z,1.123
2022-11-17T14:29:06.138Z,1.965
2022-11-17T14:31:07.760Z,0
2022-11-17T14:33:13.308Z,0
2022-11-17T14:35:10.251Z,0.14
2022-11-17T14:37:11.840Z,3.65
2022-11-17T14:39:13.990Z,0.561
2022-11-17T14:41:15.602Z,2.106
2022-11-17T14:43:17.556Z,2.667
2022-11-17T14:45:18.490Z,5.054
2022-11-17T14:47:19.446Z,5.194
2022-11-17T14:49:20.752Z,3.369
2022-11-17T14:51:22.076Z,6.598
2022-11-17T14:53:23.396Z,4.492
2022-11-17T14:55:24.732Z,5.616
2022-11-17T14:57:25.994Z,4.071
2022-11-17T14:59:27.716Z,5.616
2022-11-17T15:01:29.228Z,2.246
2022-11-17T15:03:30.500Z,6.458
2022-11-17T15:05:31.664Z,2.808
2022-11-17T15:07:33.305Z,3.931
2022-11-17T15:09:34.562Z,1.965
2022-11-17T15:11:39.361Z,2.667
2022-11-17T15:13:37.273Z,3.369
2022-11-17T15:15:38.374Z,2.106
2022-11-17T15:17:39.349Z,0.421
2022-11-17T15:19:40.948Z,0.28
2022-11-17T15:21:42.390Z,2.527
2022-11-17T15:23:44.278Z,0.28
2022-11-17T15:25:45.576Z,2.667
2022-11-17T15:27:46.535Z,1.684
2022-11-17T15:29:48.130Z,2.106
2022-11-17T15:31:49.770Z,0.561
2022-11-17T15:33:50.703Z,0
2022-11-17T15:35:51.890Z,0
2022-11-17T15:37:53.606Z,0
2022-11-17T15:39:54.940Z,0
2022-11-17T15:41:56.017Z,0
2022-11-17T15:43:57.813Z,0
2022-11-17T15:45:59.716Z,0.561
2022-11-17T15:50:02.701Z,0
2022-11-17T15:52:03.745Z,0.14
2022-11-17T15:54:05.383Z,0
2022-11-17T15:56:06.636Z,0
2022-11-17T16:00:09.787Z,0
2022-11-17T16:02:11.470Z,0
2022-11-17T16:04:13.162Z,0.14
2022-11-17T16:06:14.555Z,0
2022-11-17T16:08:16.204Z,0
2022-11-17T16:10:17.999Z,0
2022-11-17T16:12:19.671Z,0
2022-11-17T16:14:21.341Z,0
2022-11-17T16:16:22.523Z,0
2022-11-17T16:18:23.538Z,0
2022-11-17T16:20:24.541Z,0
2022-11-17T16:22:25.922Z,2.106
2022-11-17T16:24:27.820Z,2.106
2022-11-17T16:26:28.851Z,3.369
2022-11-17T16:28:30.369Z,1.965
2022-11-17T16:32:32.924Z,0.842
2022-11-17T16:34:34.208Z,2.808
2022-11-17T16:36:36.485Z,0.982
2022-11-17T16:38:39.593Z,0.14
2022-11-17T16:42:40.257Z,2.386
2022-11-17T16:44:41.609Z,2.667
2022-11-17T16:46:43.275Z,3.088
2022-11-17T16:48:44.347Z,3.088
2022-11-17T16:50:45.938Z,0.14
2022-11-17T16:52:46.922Z,3.51
2022-11-17T16:54:47.895Z,1.404
2022-11-17T16:56:49.752Z,2.106
2022-11-17T16:58:51.551Z,3.51
2022-11-17T17:00:52.757Z,3.088
2022-11-17T17:02:54.306Z,4.633
2022-11-17T17:04:55.406Z,4.773
2022-11-17T17:06:56.853Z,4.352
2022-11-17T17:08:57.909Z,5.054
2022-11-17T17:10:59.583Z,3.79
2022-11-17T17:13:00.504Z,3.229
2022-11-17T17:15:02.472Z,4.071
2022-11-17T17:17:03.857Z,3.931
2022-11-17T17:19:05.480Z,3.088
2022-11-17T17:21:07.308Z,2.246
2022-11-17T17:23:08.349Z,0
2022-11-17T17:25:10.056Z,1.123
2022-11-17T17:27:11.875Z,0
2022-11-17T17:29:13.884Z,0.702
2022-11-17T17:31:19.769Z,0
2022-11-17T17:33:16.042Z,1.684
2022-11-17T17:35:17.899Z,3.931
2022-11-17T17:37:19.784Z,1.263
2022-11-17T17:39:20.953Z,0.702
2022-11-17T17:41:22.428Z,1.965
2022-11-17T17:43:23.586Z,2.527
2022-11-17T17:45:25.489Z,0.14
2022-11-17T17:47:27.287Z,2.527
2022-11-17T17:49:28.417Z,1.965
2022-11-17T17:51:29.752Z,0.702
2022-11-17T17:53:30.743Z,1.544
2022-11-17T17:55:32.540Z,4.914
2022-11-17T17:57:34.273Z,1.825
2022-11-17T17:59:35.749Z,2.386
2022-11-17T18:01:36.839Z,0.842
2022-11-17T18:03:38.652Z,1.965
2022-11-17T18:05:40.366Z,3.65
2022-11-17T18:07:42.134Z,3.088
2022-11-17T18:09:43.180Z,0.702
2022-11-17T18:13:45.678Z,4.071
2022-11-17T18:15:47.534Z,5.616
2022-11-17T18:17:48.974Z,2.386
2022-11-17T18:19:50.373Z,0
2022-11-17T18:23:53.067Z,0
2022-11-17T18:25:54.244Z,0
2022-11-17T18:27:55.944Z,0
2022-11-17T18:29:57.525Z,0
2022-11-17T18:31:58.529Z,0
2022-11-17T18:34:00.291Z,0
2022-11-17T18:36:01.890Z,0
2022-11-17T18:38:03.424Z,0
2022-11-17T18:40:05.090Z,0
2022-11-17T18:42:06.796Z,0
2022-11-17T18:44:08.172Z,0
2022-11-17T18:46:09.870Z,0
2022-11-17T18:48:11.327Z,1.825
2022-11-17T18:50:12.825Z,5.194
2022-11-17T18:52:14.774Z,5.475
2022-11-17T18:56:17.578Z,8.002
2022-11-17T18:58:19.449Z,5.475
2022-11-17T19:00:21.327Z,3.65
2022-11-17T19:02:23.133Z,5.194
2022-11-17T19:06:26.285Z,3.65
2022-11-17T19:08:28.045Z,4.212
2022-11-17T19:10:29.225Z,3.51
2022-11-17T19:12:30.614Z,0.702
2022-11-17T19:14:32.082Z,0.28
2022-11-17T19:16:33.730Z,1.965
2022-11-17T19:18:35.476Z,1.544
2022-11-17T19:20:36.881Z,1.123
2022-11-17T19:22:38.175Z,3.65
2022-11-17T19:24:39.331Z,0.14
2022-11-17T19:26:40.866Z,0
2022-11-17T19:28:42.768Z,0.14
2022-11-17T19:30:44.104Z,0.561
2022-11-17T19:32:45.130Z,0.561
2022-11-17T19:34:47.044Z,0.28
2022-11-17T19:38:49.310Z,0.14
2022-11-17T19:40:51.037Z,2.667
2022-11-17T19:42:52.393Z,1.825
2022-11-17T19:44:53.854Z,0
2022-11-17T19:48:56.605Z,0
2022-11-17T19:50:58.542Z,0
2022-11-17T19:55:02.255Z,0
2022-11-17T19:57:04.022Z,0.421
2022-11-17T19:59:06.280Z,2.667
2022-11-17T20:01:07.127Z,0.982
2022-11-17T20:03:08.547Z,0.702
2022-11-17T20:05:11.033Z,0
2022-11-17T20:07:11.175Z,2.246
2022-11-17T20:11:13.608Z,0.421
2022-11-17T20:13:14.970Z,1.263
2022-11-17T20:15:27.134Z,0.14
2022-11-17T20:17:17.482Z,0
2022-11-17T20:19:18.941Z,1.825
2022-11-17T20:20:02.565Z,2.106
2022-11-17T20:22:03.876Z,1.965
2022-11-17T20:24:05.742Z,0
2022-11-17T20:26:07.456Z,0.14
2022-11-17T20:28:09.185Z,0.28
2022-11-17T20:30:14.896Z,0
2022-11-17T20:32:11.696Z,0
2022-11-17T20:34:13.610Z,0
2022-11-17T20:36:14.979Z,0
2022-11-17T20:38:16.765Z,0
2022-11-17T20:40:18.531Z,0
2022-11-17T20:42:19.679Z,0
2022-11-17T20:44:21.496Z,1.965
2022-11-17T20:46:22.815Z,0.982
2022-11-17T20:48:24.619Z,0.842
2022-11-17T20:50:26.368Z,1.544
2022-11-17T20:52:27.497Z,3.369
2022-11-17T20:54:28.489Z,1.544
2022-11-17T20:56:30.051Z,2.527
2022-11-17T20:58:31.583Z,0.14
2022-11-17T21:00:33.287Z,0.14
2022-11-17T21:02:34.334Z,0.421
2022-11-17T21:04:35.496Z,0
2022-11-17T21:06:37.412Z,0
2022-11-17T21:08:38.659Z,1.965
2022-11-17T21:10:40.434Z,1.965
2022-11-17T21:12:41.667Z,3.369
2022-11-17T21:14:43.059Z,4.914
2022-11-17T21:16:44.424Z,4.212
2022-11-17T21:18:45.855Z,1.965
2022-11-17T21:20:47.808Z,3.229
2022-11-17T21:22:49.501Z,2.106
2022-11-17T21:24:51.379Z,3.79
2022-11-17T21:26:52.491Z,1.404
2022-11-17T21:28:54.011Z,1.404
2022-11-17T21:30:55.053Z,3.931
2022-11-17T21:32:56.387Z,5.616
2022-11-17T21:34:58.141Z,5.475
2022-11-17T21:37:00.090Z,7.02
2022-11-17T21:39:01.314Z,7.3
2022-11-17T21:41:02.964Z,5.054
2022-11-17T21:43:04.063Z,3.65
2022-11-17T21:45:05.628Z,2.386
2022-11-17T21:47:07.270Z,3.369
2022-11-17T21:49:08.704Z,0.702
2022-11-17T21:51:10.507Z,0
2022-11-17T21:53:11.737Z,1.825
2022-11-17T21:55:13.327Z,1.263
2022-11-17T21:57:14.582Z,3.088
2022-11-17T21:59:15.780Z,3.229
2022-11-17T22:01:16.945Z,3.369
2022-11-17T22:03:17.906Z,4.633
2022-11-17T22:05:18.894Z,4.071
2022-11-17T22:07:20.560Z,4.212
2022-11-17T22:09:21.991Z,7.722
2022-11-17T22:11:23.477Z,4.212
2022-11-17T22:13:25.293Z,4.352
2022-11-17T22:15:26.731Z,6.739
2022-11-17T22:17:28.067Z,5.475
2022-11-17T22:19:29.200Z,3.931
2022-11-17T22:21:31.094Z,4.914
2022-11-17T22:23:32.700Z,2.667
2022-11-17T22:25:44.529Z,0.28
2022-11-17T22:27:35.912Z,0.702
2022-11-17T22:29:37.813Z,0
2022-11-17T22:31:39.656Z,0
2022-11-17T22:33:40.714Z,0
2022-11-17T22:35:41.768Z,0
2022-11-17T22:37:43.187Z,0
2022-11-17T22:39:44.315Z,1.263
2022-11-17T22:41:45.366Z,0.28
2022-11-17T22:43:47.148Z,0
2022-11-17T22:45:48.828Z,0
2022-11-17T22:47:49.863Z,0
2022-11-17T22:49:51.743Z,0.702
2022-11-17T22:51:52.766Z,0
2022-11-17T22:53:53.738Z,0
2022-11-17T22:55:55.276Z,1.544
2022-11-17T22:57:56.482Z,2.948
2022-11-17T22:59:57.690Z,0
2022-11-17T23:01:59.384Z,1.404
2022-11-17T23:04:00.440Z,3.088
2022-11-17T23:06:01.547Z,3.931
2022-11-17T23:08:08.300Z,0.561
2022-11-17T23:10:05.043Z,3.931
2022-11-17T23:12:06.775Z,4.071
2022-11-17T23:14:08.490Z,2.527
2022-11-17T23:16:09.954Z,2.106
2022-11-17T23:18:11.778Z,1.684
2022-11-17T23:22:15.072Z,0.702
2022-11-17T23:24:16.058Z,4.071
2022-11-17T23:26:17.163Z,0.14
2022-11-17T23:28:18.724Z,2.246
2022-11-17T23:30:20.074Z,0
2022-11-17T23:34:22.767Z,0
2022-11-17T23:36:24.004Z,0.421
2022-11-17T23:38:25.086Z,1.263
2022-11-17T23:40:26.596Z,0.14
2022-11-17T23:42:32.197Z,0
2022-11-17T23:44:29.464Z,0
2022-11-17T23:46:30.869Z,0
2022-11-17T23:48:32.732Z,0
2022-11-17T23:50:34.175Z,0
2022-11-17T23:54:36.437Z,0
2022-11-17T23:56:37.593Z,0
2022-11-17T23:58:38.805Z,0
